Time;durP1;ratioP1;P1;durP2;ratioP2;P2;SDS_P1;SDS_P2;PMS_P1;PMS_P2;Temp;Humidity;BMP_temperature;BMP_pressure;BME280_temperature;BME280_humidity;BME280_pressure;Samples;Min_cycle;Max_cycle;Signal;HPM_P1;HPM_P2
2022/03/06 00:02:25;;;;;;;32.72;16.38;;;-2.40;89.00;;;;;;6310157;22;19996;-65
2022/03/06 00:04:55;;;;;;;28.88;15.07;;;-2.50;89.20;;;;;;6309490;22;20004;-65
2022/03/06 00:07:21;;;;;;;32.78;15.25;;;-2.60;89.60;;;;;;6310636;22;20007;-65
2022/03/06 00:09:47;;;;;;;31.08;15.63;;;-2.60;89.90;;;;;;6310002;22;20117;-64
2022/03/06 00:12:13;;;;;;;29.48;15.38;;;-2.60;90.00;;;;;;6310805;22;20391;-65
2022/03/06 00:14:39;;;;;;;29.15;14.98;;;-2.60;90.30;;;;;;6311510;22;20307;-65
2022/03/06 00:17:05;;;;;;;48.47;24.73;;;-2.70;90.30;;;;;;6311410;22;20052;-64
2022/03/06 00:19:31;;;;;;;31.45;16.20;;;-2.80;90.40;;;;;;6309876;22;20309;-65
2022/03/06 00:21:57;;;;;;;28.38;15.05;;;-2.80;90.70;;;;;;6311243;22;20003;-65
2022/03/06 00:24:23;;;;;;;31.65;16.10;;;-2.80;91.00;;;;;;6282045;22;20311;-65
2022/03/06 00:26:52;;;;;;;33.67;16.60;;;-2.80;91.10;;;;;;6283940;22;20060;-65
2022/03/06 00:29:19;;;;;;;30.88;16.30;;;-2.90;91.30;;;;;;6311203;22;20007;-65
2022/03/06 00:31:45;;;;;;;33.38;16.45;;;-3.00;91.50;;;;;;6311285;22;20078;-65
2022/03/06 00:34:11;;;;;;;35.40;17.00;;;-3.00;91.90;;;;;;6310830;22;20065;-66
2022/03/06 00:36:37;;;;;;;32.22;16.73;;;-3.00;92.20;;;;;;6311348;22;20319;-66
2022/03/06 00:39:04;;;;;;;37.38;18.17;;;-3.10;92.20;;;;;;6309492;22;20003;-66
2022/03/06 00:41:30;;;;;;;31.63;16.02;;;-3.10;92.40;;;;;;6311260;22;20265;-66
2022/03/06 00:43:56;;;;;;;34.53;17.55;;;-3.10;92.40;;;;;;6311345;22;20027;-65
2022/03/06 00:46:22;;;;;;;32.85;16.42;;;-3.10;92.80;;;;;;6284355;22;20004;-65
2022/03/06 00:48:48;;;;;;;31.73;16.20;;;-3.10;92.80;;;;;;6311149;22;19996;-64
2022/03/06 00:51:15;;;;;;;32.40;16.27;;;-3.00;92.70;;;;;;6311566;22;20049;-65
2022/03/06 00:53:42;;;;;;;33.05;17.10;;;-3.00;92.60;;;;;;6309331;22;20046;-64
2022/03/06 00:56:09;;;;;;;36.90;16.75;;;-3.10;92.60;;;;;;6311111;22;20066;-65
2022/03/06 00:58:35;;;;;;;32.20;17.17;;;-3.10;92.90;;;;;;6310470;22;20074;-63
2022/03/06 01:01:01;;;;;;;30.88;16.40;;;-3.10;93.00;;;;;;6311042;22;20029;-65
2022/03/06 01:03:27;;;;;;;32.63;16.55;;;-3.10;93.10;;;;;;6310949;22;19999;-65
2022/03/06 01:05:53;;;;;;;37.22;16.98;;;-3.10;93.10;;;;;;6311107;22;20060;-65
2022/03/06 01:08:19;;;;;;;30.33;15.25;;;-3.10;93.10;;;;;;6309920;22;20321;-65
2022/03/06 01:10:47;;;;;;;33.10;16.38;;;-3.10;93.00;;;;;;6310781;22;20084;-65
2022/03/06 01:13:13;;;;;;;37.45;18.50;;;-3.20;93.30;;;;;;6310338;22;20076;-65
2022/03/06 01:15:40;;;;;;;31.67;16.02;;;-3.30;93.30;;;;;;6310790;22;20082;-66
2022/03/06 01:18:07;;;;;;;36.70;18.85;;;-3.30;93.50;;;;;;6310718;22;20007;-64
2022/03/06 01:20:34;;;;;;;33.65;17.10;;;-3.30;93.50;;;;;;6283482;22;20011;-66
2022/03/06 01:23:00;;;;;;;30.85;15.80;;;-3.50;93.80;;;;;;6308583;22;19999;-65
2022/03/06 01:25:29;;;;;;;34.97;16.95;;;-3.60;94.00;;;;;;6310335;22;19996;-66
2022/03/06 01:27:55;;;;;;;34.60;17.52;;;-3.80;94.40;;;;;;6310347;22;20000;-66
2022/03/06 01:30:25;;;;;;;36.90;18.25;;;-3.80;94.90;;;;;;6309838;22;20045;-64
2022/03/06 01:32:53;;;;;;;36.75;16.88;;;-3.80;95.10;;;;;;6311139;22;19999;-65
2022/03/06 01:35:20;;;;;;;32.40;17.35;;;-3.90;95.10;;;;;;6310823;22;20000;-65
2022/03/06 01:37:47;;;;;;;39.40;17.42;;;-4.10;95.40;;;;;;6256625;22;20476;-65
2022/03/06 01:40:21;;;;;;;34.83;16.77;;;-4.20;95.70;;;;;;6310576;22;20361;-65
2022/03/06 01:42:48;;;;;;;39.22;17.90;;;-4.20;96.20;;;;;;6310325;22;20006;-64
2022/03/06 01:45:16;;;;;;;36.10;17.30;;;-4.30;96.40;;;;;;6310169;22;19995;-63
2022/03/06 01:47:48;;;;;;;38.15;18.88;;;-4.30;96.50;;;;;;6310407;22;20007;-64
2022/03/06 01:50:27;;;;;;;35.90;17.50;;;-4.30;96.80;;;;;;6310507;22;20110;-64
2022/03/06 01:52:55;;;;;;;34.42;17.50;;;-4.40;96.90;;;;;;6309162;22;19999;-64
2022/03/06 01:55:25;;;;;;;42.67;18.88;;;-4.40;97.00;;;;;;6283982;22;20269;-64
2022/03/06 01:57:53;;;;;;;36.30;17.02;;;-4.30;97.20;;;;;;6310614;22;20003;-64
2022/03/06 02:00:22;;;;;;;35.13;18.27;;;-4.30;97.20;;;;;;6310342;22;20029;-64
2022/03/06 02:02:51;;;;;;;35.05;17.20;;;-4.20;97.30;;;;;;6310637;22;19999;-64
2022/03/06 02:05:18;;;;;;;40.53;18.83;;;-4.10;97.20;;;;;;6309880;22;20376;-64
2022/03/06 02:07:44;;;;;;;34.75;16.67;;;-4.00;97.10;;;;;;6309413;22;20023;-63
2022/03/06 02:10:13;;;;;;;33.95;18.25;;;-4.00;97.10;;;;;;6310436;22;20003;-64
2022/03/06 02:12:43;;;;;;;39.88;18.13;;;-4.10;96.80;;;;;;6310639;22;20380;-64
2022/03/06 02:15:11;;;;;;;34.17;17.70;;;-4.20;97.10;;;;;;6310212;22;20003;-63
2022/03/06 02:17:40;;;;;;;40.90;18.60;;;-4.20;97.20;;;;;;6283010;22;20011;-64
2022/03/06 02:20:22;;;;;;;37.22;18.80;;;-4.20;97.50;;;;;;6310362;22;20054;-64
2022/03/06 02:22:51;;;;;;;38.03;17.20;;;-4.30;97.50;;;;;;6309053;22;19995;-62
2022/03/06 02:25:26;;;;;;;37.03;18.15;;;-4.30;97.70;;;;;;6310263;22;20022;-64
2022/03/06 02:27:54;;;;;;;38.92;20.00;;;-4.20;97.60;;;;;;6309753;22;19999;-63
2022/03/06 02:30:23;;;;;;;34.80;17.55;;;-3.90;97.80;;;;;;6310312;22;20364;-63
2022/03/06 02:32:51;;;;;;;37.13;18.17;;;-3.90;97.50;;;;;;6309544;22;20013;-66
2022/03/06 02:35:18;;;;;;;40.72;19.60;;;-4.00;97.40;;;;;;6310032;22;20310;-65
2022/03/06 02:37:44;;;;;;;38.55;18.42;;;-4.00;97.50;;;;;;6309340;22;20357;-64
2022/03/06 02:40:12;;;;;;;35.97;18.40;;;-4.00;97.50;;;;;;6309348;22;20007;-65
2022/03/06 02:42:40;;;;;;;40.17;20.13;;;-3.90;97.80;;;;;;6310592;22;20010;-64
2022/03/06 02:45:28;;;;;;;37.03;18.40;;;-3.90;97.60;;;;;;6309747;22;20048;-65
2022/03/06 02:47:56;;;;;;;38.88;18.70;;;-4.00;97.60;;;;;;6309695;22;20006;-65
2022/03/06 02:50:24;;;;;;;44.65;20.92;;;-4.00;97.70;;;;;;6310045;22;20049;-64
2022/03/06 02:52:52;;;;;;;38.17;20.17;;;-4.10;97.70;;;;;;6308520;22;20052;-65
2022/03/06 02:55:18;;;;;;;39.38;19.70;;;-4.00;98.00;;;;;;6309848;22;20017;-63
2022/03/06 02:57:47;;;;;;;36.38;17.50;;;-4.10;97.80;;;;;;6309999;22;20003;-63
2022/03/06 03:00:17;;;;;;;36.40;18.88;;;-4.10;97.80;;;;;;6309688;22;20007;-63
2022/03/06 03:02:47;;;;;;;43.25;19.80;;;-4.00;98.00;;;;;;6309565;22;20011;-65
2022/03/06 03:05:14;;;;;;;37.83;19.38;;;-4.00;98.00;;;;;;6309535;22;20004;-62
2022/03/06 03:07:42;;;;;;;42.38;21.90;;;-4.10;98.00;;;;;;6310271;22;20078;-63
2022/03/06 03:10:14;;;;;;;43.03;21.85;;;-4.10;97.90;;;;;;6308680;22;20011;-63
2022/03/06 03:12:43;;;;;;;39.47;19.60;;;-3.90;98.00;;;;;;6310375;22;20246;-64
2022/03/06 03:15:10;;;;;;;39.30;20.08;;;-3.90;98.00;;;;;;6309642;22;20235;-64
2022/03/06 03:17:37;;;;;;;40.75;19.55;;;-4.00;98.00;;;;;;6309863;22;20000;-63
2022/03/06 03:20:04;;;;;;;42.40;21.67;;;-4.00;98.00;;;;;;6309396;22;20004;-64
2022/03/06 03:22:31;;;;;;;39.85;20.30;;;-4.00;98.00;;;;;;6310225;22;20006;-64
2022/03/06 03:24:57;;;;;;;38.53;20.35;;;-4.00;98.00;;;;;;6308282;22;19999;-63
2022/03/06 03:27:23;;;;;;;40.53;20.13;;;-4.00;98.00;;;;;;6310133;22;20070;-63
2022/03/06 03:29:49;;;;;;;45.00;20.75;;;-4.10;98.00;;;;;;6310155;22;20003;-64
2022/03/06 03:32:15;;;;;;;40.38;21.77;;;-4.10;98.00;;;;;;6310530;22;20268;-64
2022/03/06 03:34:41;;;;;;;39.17;19.85;;;-3.80;98.00;;;;;;6309325;22;20003;-63
2022/03/06 03:37:07;;;;;;;43.67;20.02;;;-3.80;98.00;;;;;;6310113;22;20007;-64
2022/03/06 03:39:36;;;;;;;41.97;19.67;;;-3.80;98.00;;;;;;6281241;22;20030;-63
2022/03/06 03:42:02;;;;;;;38.70;20.90;;;-3.60;98.00;;;;;;6310612;22;20058;-64
2022/03/06 03:44:28;;;;;;;40.90;20.60;;;-3.60;98.00;;;;;;6309797;22;20458;-63
2022/03/06 03:46:54;;;;;;;44.90;20.10;;;-3.60;98.00;;;;;;6310324;22;20031;-64
2022/03/06 03:49:20;;;;;;;38.72;19.92;;;-3.60;98.00;;;;;;6309909;22;19999;-64
2022/03/06 03:51:46;;;;;;;38.30;19.85;;;-3.60;98.00;;;;;;6310033;22;19999;-64
2022/03/06 03:54:13;;;;;;;38.95;19.30;;;-3.70;98.00;;;;;;6308474;22;20037;-62
2022/03/06 03:56:39;;;;;;;38.65;19.88;;;-3.70;98.00;;;;;;6310379;22;20006;-63
2022/03/06 03:59:05;;;;;;;42.85;21.38;;;-3.80;98.00;;;;;;6309817;22;20311;-63
2022/03/06 04:01:31;;;;;;;40.92;20.92;;;-3.80;98.00;;;;;;6309764;22;19995;-64
2022/03/06 04:03:57;;;;;;;47.92;19.35;;;-3.80;98.00;;;;;;6309789;22;20116;-63
2022/03/06 04:06:23;;;;;;;39.40;20.08;;;-3.80;98.00;;;;;;6309724;22;20463;-64
2022/03/06 04:08:48;;;;;;;40.17;20.60;;;-3.80;98.00;;;;;;6255003;22;20009;-63
2022/03/06 04:11:17;;;;;;;43.47;20.90;;;-3.90;98.00;;;;;;6310018;22;19995;-64
2022/03/06 04:13:44;;;;;;;42.55;21.65;;;-3.90;98.00;;;;;;6310137;22;20007;-63
2022/03/06 04:16:09;;;;;;;44.30;20.13;;;-3.90;98.00;;;;;;6310479;22;20030;-64
2022/03/06 04:18:35;;;;;;;38.08;19.58;;;-3.90;98.00;;;;;;6284459;22;20387;-64
2022/03/06 04:21:01;;;;;;;43.55;21.45;;;-3.70;98.00;;;;;;6311670;22;20010;-64
2022/03/06 04:23:27;;;;;;;42.45;20.88;;;-3.70;98.00;;;;;;6309807;22;20463;-64
2022/03/06 04:25:53;;;;;;;42.05;21.13;;;-3.80;98.00;;;;;;6311301;22;19991;-64
2022/03/06 04:28:19;;;;;;;42.50;21.10;;;-3.80;98.00;;;;;;6311275;22;20002;-63
2022/03/06 04:30:45;;;;;;;45.88;22.60;;;-3.80;98.00;;;;;;6312409;22;20003;-63
2022/03/06 04:33:11;;;;;;;37.50;18.45;;;-3.80;98.00;;;;;;6311595;22;20086;-63
2022/03/06 04:35:37;;;;;;;44.00;22.05;;;-3.80;98.00;;;;;;6311393;22;20306;-64
2022/03/06 04:38:03;;;;;;;43.65;21.83;;;-3.90;98.00;;;;;;6310640;22;20164;-65
2022/03/06 04:40:29;;;;;;;41.50;21.15;;;-3.90;98.00;;;;;;6311533;22;20007;-62
2022/03/06 04:42:55;;;;;;;39.05;19.35;;;-4.00;98.00;;;;;;6311987;22;20084;-63
2022/03/06 04:45:23;;;;;;;41.20;20.70;;;-4.10;98.00;;;;;;6310537;22;20094;-63
2022/03/06 04:47:52;;;;;;;44.65;22.65;;;-4.10;98.00;;;;;;6311447;22;20078;-63
2022/03/06 04:50:18;;;;;;;42.17;21.60;;;-4.10;98.00;;;;;;6311407;22;20079;-64
2022/03/06 04:52:44;;;;;;;46.45;22.63;;;-4.10;98.00;;;;;;6310482;22;20318;-62
2022/03/06 04:55:10;;;;;;;43.90;22.75;;;-4.10;98.00;;;;;;6310167;22;20246;-62
2022/03/06 04:57:36;;;;;;;42.40;20.77;;;-4.20;98.00;;;;;;6310734;22;19999;-62
2022/03/06 05:00:06;;;;;;;41.35;20.80;;;-4.20;98.00;;;;;;6310595;22;20070;-61
2022/03/06 05:02:32;;;;;;;44.70;21.65;;;-4.30;98.00;;;;;;6311328;22;20056;-63
2022/03/06 05:04:58;;;;;;;47.15;23.38;;;-4.30;98.00;;;;;;6258094;22;20007;-63
2022/03/06 05:07:24;;;;;;;43.75;21.88;;;-4.40;98.00;;;;;;6311462;22;19999;-63
2022/03/06 05:09:51;;;;;;;44.55;22.23;;;-4.50;98.00;;;;;;6282607;22;20011;-62
2022/03/06 05:12:17;;;;;;;49.83;24.30;;;-4.50;98.00;;;;;;6258339;22;20011;-64
2022/03/06 05:14:43;;;;;;;43.08;22.02;;;-4.50;98.00;;;;;;6310548;22;20053;-64
2022/03/06 05:17:09;;;;;;;45.85;22.17;;;-4.60;98.00;;;;;;6283799;22;20003;-63
2022/03/06 05:19:35;;;;;;;47.03;22.58;;;-4.60;98.00;;;;;;6311401;22;20380;-61
2022/03/06 05:22:00;;;;;;;46.00;22.38;;;-4.60;98.00;;;;;;6311226;22;19996;-62
2022/03/06 05:24:26;;;;;;;46.03;22.77;;;-4.60;98.00;;;;;;6282209;22;20094;-61
2022/03/06 05:26:55;;;;;;;53.15;25.48;;;-4.60;98.00;;;;;;6310848;22;20021;-63
2022/03/06 05:29:21;;;;;;;46.47;24.13;;;-4.60;98.00;;;;;;6310618;22;20086;-63
2022/03/06 05:31:47;;;;;;;53.80;26.08;;;-4.40;98.00;;;;;;6283956;22;20007;-64
2022/03/06 05:34:13;;;;;;;45.92;23.15;;;-4.30;98.00;;;;;;6310430;22;20045;-63
2022/03/06 05:36:39;;;;;;;48.95;22.75;;;-4.50;98.00;;;;;;6310598;22;20356;-62
2022/03/06 05:39:05;;;;;;;51.92;23.23;;;-4.50;98.00;;;;;;6282320;22;20067;-64
2022/03/06 05:41:31;;;;;;;47.53;23.60;;;-4.50;98.00;;;;;;6310648;22;20066;-63
2022/03/06 05:43:57;;;;;;;43.33;22.45;;;-4.60;98.00;;;;;;6310618;22;20478;-64
2022/03/06 05:46:23;;;;;;;48.50;23.92;;;-4.60;98.00;;;;;;6310595;22;20023;-63
2022/03/06 05:48:49;;;;;;;43.78;21.23;;;-4.60;98.00;;;;;;6310616;22;19992;-64
2022/03/06 05:51:14;;;;;;;47.40;21.85;;;-4.50;98.00;;;;;;6311818;22;20178;-64
2022/03/06 05:53:40;;;;;;;45.03;23.45;;;-4.60;98.00;;;;;;6309144;22;20364;-64
2022/03/06 05:56:07;;;;;;;50.80;24.85;;;-4.50;98.00;;;;;;6310936;22;20007;-64
2022/03/06 05:58:32;;;;;;;45.45;23.08;;;-4.50;98.00;;;;;;6310153;22;20003;-64
2022/03/06 06:00:58;;;;;;;47.03;24.33;;;-4.60;98.00;;;;;;6310899;22;19999;-64
2022/03/06 06:03:25;;;;;;;48.20;25.23;;;-4.50;98.00;;;;;;6310368;22;20365;-65
2022/03/06 06:05:51;;;;;;;52.03;24.50;;;-4.50;98.00;;;;;;6310658;22;20021;-64
2022/03/06 06:08:17;;;;;;;51.95;24.50;;;-4.50;98.00;;;;;;6309631;22;20071;-64
2022/03/06 06:10:45;;;;;;;57.45;26.02;;;-4.50;98.00;;;;;;6310159;22;19999;-65
2022/03/06 06:13:14;;;;;;;51.90;26.17;;;-4.30;98.00;;;;;;6310098;22;20018;-63
2022/03/06 06:15:43;;;;;;;59.08;29.27;;;-4.20;98.00;;;;;;6310509;22;19999;-63
2022/03/06 06:18:12;;;;;;;49.17;23.45;;;-4.20;98.00;;;;;;6310657;22;20014;-64
2022/03/06 06:20:40;;;;;;;47.15;23.23;;;-4.00;98.00;;;;;;6310032;22;20387;-65
2022/03/06 06:23:06;;;;;;;45.92;22.80;;;-3.90;98.00;;;;;;6308554;22;20060;-63
2022/03/06 06:25:32;;;;;;;39.00;21.35;;;-3.70;98.00;;;;;;6310317;22;19996;-64
2022/03/06 06:27:57;;;;;;;47.58;23.10;;;-3.70;98.00;;;;;;6309842;22;19998;-64
2022/03/06 06:30:23;;;;;;;43.05;21.38;;;-3.60;98.00;;;;;;6310481;22;20003;-65
2022/03/06 06:32:49;;;;;;;42.97;22.08;;;-3.40;98.00;;;;;;6309644;22;20026;-64
2022/03/06 06:35:15;;;;;;;39.08;20.92;;;-3.20;98.00;;;;;;6309988;22;20368;-63
2022/03/06 06:37:41;;;;;;;39.38;20.55;;;-3.00;98.00;;;;;;6309431;22;20003;-65
2022/03/06 06:40:08;;;;;;;38.67;20.38;;;-2.80;98.00;;;;;;6308713;22;20027;-64
2022/03/06 06:42:34;;;;;;;42.65;21.58;;;-2.80;98.00;;;;;;6308879;22;20035;-65
2022/03/06 06:44:59;;;;;;;43.03;20.95;;;-2.80;98.00;;;;;;6310509;22;20361;-63
2022/03/06 06:47:25;;;;;;;39.40;21.48;;;-2.70;97.80;;;;;;6305310;22;20004;-65
2022/03/06 06:49:51;;;;;;;40.30;21.13;;;-2.70;97.60;;;;;;6309738;22;20000;-63
2022/03/06 06:52:17;;;;;;;38.30;20.45;;;-2.60;97.50;;;;;;6310137;22;20058;-62
2022/03/06 06:54:43;;;;;;;44.08;23.20;;;-2.60;97.50;;;;;;6308270;22;20010;-64
2022/03/06 06:57:09;;;;;;;37.90;20.02;;;-2.50;97.30;;;;;;6282585;22;20049;-64
2022/03/06 06:59:35;;;;;;;41.45;20.05;;;-2.30;96.70;;;;;;6283167;22;20011;-63
2022/03/06 07:02:01;;;;;;;41.15;21.20;;;-2.20;96.50;;;;;;6310782;22;20053;-64
2022/03/06 07:04:27;;;;;;;41.33;21.02;;;-2.10;96.30;;;;;;6309752;22;19995;-64
2022/03/06 07:06:53;;;;;;;41.75;20.38;;;-2.00;95.90;;;;;;6310016;22;20061;-62
2022/03/06 07:09:19;;;;;;;39.72;20.45;;;-2.00;95.80;;;;;;6308644;22;20003;-63
2022/03/06 07:11:45;;;;;;;42.47;22.30;;;-1.90;95.30;;;;;;6310196;22;20072;-64
2022/03/06 07:14:10;;;;;;;41.20;20.52;;;-1.90;95.20;;;;;;6310270;22;20025;-63
2022/03/06 07:16:36;;;;;;;41.95;21.98;;;-1.80;95.00;;;;;;6310162;22;20376;-64
2022/03/06 07:19:02;;;;;;;41.20;21.67;;;-1.70;94.60;;;;;;6309826;22;20049;-64
2022/03/06 07:21:28;;;;;;;39.72;20.27;;;-1.70;94.50;;;;;;6281557;22;20006;-64
2022/03/06 07:23:54;;;;;;;44.45;21.70;;;-1.70;94.30;;;;;;6308134;22;20284;-64
2022/03/06 07:26:23;;;;;;;39.78;20.83;;;-1.70;94.20;;;;;;6309817;22;20007;-63
2022/03/06 07:28:49;;;;;;;39.65;20.98;;;-1.60;94.00;;;;;;6309954;22;20044;-65
2022/03/06 07:31:15;;;;;;;41.50;21.95;;;-1.60;93.80;;;;;;6309612;22;20034;-63
2022/03/06 07:33:40;;;;;;;42.45;23.05;;;-1.60;94.00;;;;;;6309964;22;20141;-64
2022/03/06 07:36:09;;;;;;;42.40;22.73;;;-1.60;93.90;;;;;;6309812;22;20031;-65
2022/03/06 07:38:35;;;;;;;44.00;23.20;;;-1.50;93.70;;;;;;6308746;22;20008;-64
2022/03/06 07:41:01;;;;;;;43.22;24.00;;;-1.40;93.30;;;;;;6309671;22;20007;-65
2022/03/06 07:43:27;;;;;;;38.97;20.65;;;-1.40;92.90;;;;;;6283054;22;20006;-63
2022/03/06 07:45:53;;;;;;;39.65;21.05;;;-1.40;93.00;;;;;;6282665;22;20006;-64
2022/03/06 07:48:20;;;;;;;52.50;28.95;;;-1.40;93.00;;;;;;6309395;22;20133;-62
2022/03/06 07:50:46;;;;;;;40.38;21.15;;;-1.30;93.10;;;;;;6311409;22;20034;-62
2022/03/06 07:53:12;;;;;;;40.42;21.80;;;-1.20;92.70;;;;;;6310589;22;20006;-65
2022/03/06 07:55:39;;;;;;;39.28;21.50;;;-1.20;92.30;;;;;;6310756;22;20007;-65
2022/03/06 07:58:05;;;;;;;39.17;21.55;;;-1.10;92.10;;;;;;6312026;22;20003;-64
2022/03/06 08:00:35;;;;;;;41.17;23.05;;;-1.00;91.70;;;;;;6311416;22;20007;-64
2022/03/06 08:03:01;;;;;;;38.65;20.77;;;-1.00;91.10;;;;;;6311779;22;19995;-64
2022/03/06 08:05:27;;;;;;;36.80;19.83;;;-0.90;91.10;;;;;;6311567;22;20072;-63
2022/03/06 08:07:56;;;;;;;36.25;18.77;;;-0.70;91.00;;;;;;6310007;22;20000;-64
2022/03/06 08:10:25;;;;;;;36.65;18.30;;;-0.60;90.20;;;;;;6311712;22;20376;-62
2022/03/06 08:12:51;;;;;;;37.80;20.95;;;-0.50;89.60;;;;;;6311644;22;20082;-63
2022/03/06 08:15:17;;;;;;;40.80;20.42;;;-0.30;89.50;;;;;;6310489;22;20366;-62
2022/03/06 08:17:43;;;;;;;38.22;21.65;;;-0.30;89.00;;;;;;6311171;22;20023;-64
2022/03/06 08:20:10;;;;;;;35.92;19.45;;;-0.30;89.30;;;;;;6309575;22;20384;-64
2022/03/06 08:22:36;;;;;;;41.15;21.55;;;0.00;89.00;;;;;;6310607;22;20007;-65
2022/03/06 08:25:03;;;;;;;38.88;20.92;;;0.30;87.90;;;;;;6308954;22;20091;-63
2022/03/06 08:27:30;;;;;;;33.63;18.67;;;0.70;86.80;;;;;;6310726;22;20006;-62
2022/03/06 08:29:56;;;;;;;33.63;18.92;;;1.30;85.20;;;;;;6311048;22;20008;-64
2022/03/06 08:32:22;;;;;;;35.63;19.35;;;1.40;84.10;;;;;;6310682;22;20052;-62
2022/03/06 08:34:51;;;;;;;32.80;17.30;;;1.60;84.10;;;;;;6310381;22;20053;-66
2022/03/06 08:37:18;;;;;;;32.42;17.38;;;2.20;82.50;;;;;;6310331;22;20003;-66
2022/03/06 08:39:45;;;;;;;34.50;17.75;;;2.20;80.60;;;;;;6308970;22;20007;-65
2022/03/06 08:42:12;;;;;;;33.17;17.95;;;2.10;80.70;;;;;;6310720;22;19999;-65
2022/03/06 08:44:39;;;;;;;29.80;16.85;;;2.50;80.60;;;;;;6283329;22;20007;-63
2022/03/06 08:47:06;;;;;;;30.75;17.77;;;2.90;79.40;;;;;;6310650;22;20061;-66
2022/03/06 08:49:32;;;;;;;28.40;16.38;;;2.90;79.30;;;;;;6310263;22;19999;-66
2022/03/06 08:51:58;;;;;;;27.27;16.35;;;4.00;77.90;;;;;;6308805;22;20037;-65
2022/03/06 08:54:24;;;;;;;28.98;17.17;;;4.60;74.10;;;;;;6308144;22;20027;-66
2022/03/06 08:56:50;;;;;;;29.73;17.17;;;5.00;73.70;;;;;;6311292;22;20007;-65
2022/03/06 08:59:19;;;;;;;29.77;17.50;;;5.30;72.10;;;;;;6284176;22;20268;-64
2022/03/06 09:01:47;;;;;;;29.88;17.17;;;5.70;70.00;;;;;;6311244;22;20026;-66
2022/03/06 09:04:14;;;;;;;28.25;15.73;;;5.40;70.40;;;;;;6284194;22;20075;-65
2022/03/06 09:06:41;;;;;;;29.08;16.73;;;5.10;69.90;;;;;;6311116;22;20017;-65
2022/03/06 09:09:08;;;;;;;25.42;15.13;;;4.20;71.20;;;;;;6308821;22;20050;-66
2022/03/06 09:11:34;;;;;;;25.88;14.55;;;4.30;71.10;;;;;;6309865;22;20010;-63
2022/03/06 09:14:00;;;;;;;28.73;15.75;;;4.60;71.60;;;;;;6310722;22;20048;-64
2022/03/06 09:16:27;;;;;;;27.52;15.02;;;5.40;69.90;;;;;;6310377;22;20074;-65
2022/03/06 09:18:53;;;;;;;28.63;15.82;;;4.70;69.30;;;;;;6310542;22;20002;-63
2022/03/06 09:21:19;;;;;;;23.95;13.95;;;4.00;71.30;;;;;;6310645;22;20004;-65
2022/03/06 09:23:45;;;;;;;28.27;15.20;;;4.80;71.70;;;;;;6308139;22;20074;-66
2022/03/06 09:26:12;;;;;;;25.33;14.07;;;5.60;68.60;;;;;;6310265;22;20373;-65
2022/03/06 09:28:38;;;;;;;24.00;13.85;;;5.90;66.20;;;;;;6310117;22;20112;-63
2022/03/06 09:31:04;;;;;;;23.15;13.50;;;5.80;67.30;;;;;;6310696;22;20100;-65
2022/03/06 09:33:35;;;;;;;25.52;13.60;;;6.00;65.70;;;;;;6310793;22;20082;-63
2022/03/06 09:36:04;;;;;;;23.25;14.30;;;5.80;66.50;;;;;;6283607;22;20038;-63
2022/03/06 09:38:30;;;;;;;24.88;13.48;;;5.00;67.80;;;;;;6308988;22;20007;-63
2022/03/06 09:41:02;;;;;;;24.63;13.68;;;4.60;68.80;;;;;;6310938;22;20053;-64
2022/03/06 09:43:29;;;;;;;27.45;14.80;;;4.20;68.90;;;;;;6310170;22;20004;-63
2022/03/06 09:46:02;;;;;;;26.90;15.38;;;3.80;70.40;;;;;;6310972;22;20003;-64
2022/03/06 09:48:30;;;;;;;24.25;13.45;;;3.60;70.70;;;;;;6310299;22;20316;-64
2022/03/06 09:50:56;;;;;;;22.65;14.40;;;3.70;70.30;;;;;;6283552;22;20038;-63
2022/03/06 09:53:22;;;;;;;23.40;13.15;;;3.70;69.70;;;;;;6308922;22;20022;-63
2022/03/06 09:55:48;;;;;;;23.55;13.48;;;4.20;69.90;;;;;;6309180;22;20372;-64
2022/03/06 09:58:14;;;;;;;22.40;14.07;;;4.30;68.50;;;;;;6309920;22;20005;-63
2022/03/06 10:00:43;;;;;;;22.65;13.40;;;4.10;68.30;;;;;;6309207;22;20030;-63
2022/03/06 10:03:18;;;;;;;25.08;13.82;;;3.90;68.60;;;;;;6309657;22;19999;-63
2022/03/06 10:05:43;;;;;;;21.42;13.65;;;3.70;68.50;;;;;;6310404;22;20011;-64
2022/03/06 10:08:28;;;;;;;23.80;12.20;;;4.30;69.30;;;;;;6308753;22;20010;-63
2022/03/06 10:10:57;;;;;;;23.25;13.07;;;5.70;66.80;;;;;;6310693;22;20007;-64
2022/03/06 10:13:28;;;;;;;22.02;12.88;;;6.70;63.50;;;;;;6309734;22;19999;-65
2022/03/06 10:16:19;;;;;;;20.42;11.95;;;7.30;61.70;;;;;;6310910;22;20046;-63
2022/03/06 10:18:48;;;;;;;20.27;12.07;;;7.40;59.50;;;;;;6310258;22;20011;-65
2022/03/06 10:21:32;;;;;;;20.90;12.32;;;7.40;59.70;;;;;;6308942;22;20035;-64
2022/03/06 10:24:08;;;;;;;20.70;12.02;;;7.60;60.40;;;;;;6309280;22;20003;-63
2022/03/06 10:26:36;;;;;;;19.05;11.60;;;7.70;59.20;;;;;;6310725;22;20051;-63
2022/03/06 10:29:11;;;;;;;21.13;12.55;;;7.90;58.50;;;;;;6308073;22;20366;-63
2022/03/06 10:31:54;;;;;;;19.05;11.48;;;7.70;57.80;;;;;;6310097;22;19995;-65
2022/03/06 10:34:34;;;;;;;21.45;12.57;;;7.80;58.30;;;;;;6309501;22;20000;-66
2022/03/06 10:37:02;;;;;;;21.35;12.23;;;8.20;57.50;;;;;;6309015;22;20052;-65
2022/03/06 10:39:45;;;;;;;19.42;11.98;;;8.80;57.70;;;;;;6308354;22;20014;-64
2022/03/06 10:42:20;;;;;;;21.55;11.73;;;9.40;55.80;;;;;;6308592;22;20360;-64
2022/03/06 10:44:47;;;;;;;19.08;10.38;;;10.20;54.40;;;;;;6308183;22;20407;-65
2022/03/06 10:47:13;;;;;;;21.20;12.85;;;9.20;53.20;;;;;;6308426;22;20018;-63
2022/03/06 10:49:58;;;;;;;19.42;11.43;;;8.30;56.00;;;;;;6308781;22;20042;-65
2022/03/06 10:52:24;;;;;;;20.25;11.52;;;8.80;55.10;;;;;;6308713;22;20007;-63
2022/03/06 10:54:54;;;;;;;18.95;11.00;;;9.30;55.30;;;;;;6305542;22;20023;-64
2022/03/06 10:57:22;;;;;;;17.75;10.82;;;9.30;53.70;;;;;;6306133;22;19999;-64
2022/03/06 10:59:52;;;;;;;20.85;13.40;;;9.30;53.30;;;;;;6307419;22;19995;-64
2022/03/06 11:02:19;;;;;;;17.45;10.65;;;9.20;54.30;;;;;;6309904;22;19995;-64
2022/03/06 11:04:53;;;;;;;17.85;11.32;;;9.40;53.60;;;;;;6309609;22;20003;-63
2022/03/06 11:07:19;;;;;;;19.05;11.57;;;9.80;53.80;;;;;;6309645;22;20007;-63
2022/03/06 11:09:50;;;;;;;21.08;11.20;;;10.10;52.50;;;;;;6308850;22;19999;-64
2022/03/06 11:12:17;;;;;;;17.30;10.57;;;9.70;52.70;;;;;;6310750;22;20245;-63
2022/03/06 11:14:44;;;;;;;19.20;11.45;;;9.20;53.50;;;;;;6307126;22;20014;-63
2022/03/06 11:17:17;;;;;;;18.15;11.90;;;9.30;53.50;;;;;;6310418;22;20064;-65
2022/03/06 11:19:46;;;;;;;19.00;11.43;;;9.30;52.60;;;;;;6308120;22;20406;-64
2022/03/06 11:22:39;;;;;;;14.75;9.70;;;9.60;51.50;;;;;;6309740;22;20280;-66
2022/03/06 11:25:09;;;;;;;19.02;11.23;;;9.60;51.00;;;;;;6310482;22;20014;-65
2022/03/06 11:28:19;;;;;;;18.75;11.13;;;9.70;52.30;;;;;;6312122;22;20004;-65
2022/03/06 11:30:48;;;;;;;18.13;10.70;;;9.50;51.50;;;;;;6217513;23;20039;-66
2022/03/06 11:33:18;;;;;;;19.33;12.55;;;8.40;52.20;;;;;;6217842;23;20121;-66
2022/03/06 11:35:45;;;;;;;47.38;25.83;;;7.60;54.00;;;;;;6266875;22;20007;-65
2022/03/06 11:38:13;;;;;;;17.98;11.50;;;7.10;56.80;;;;;;6310943;22;20007;-65
2022/03/06 11:40:45;;;;;;;17.63;10.52;;;7.80;56.60;;;;;;6311470;22;19999;-66
2022/03/06 11:43:31;;;;;;;18.23;10.95;;;8.40;55.10;;;;;;6312435;22;20006;-65
2022/03/06 11:46:18;;;;;;;19.48;11.93;;;8.50;53.80;;;;;;6312462;22;20002;-66
2022/03/06 11:48:44;;;;;;;18.80;11.82;;;7.60;54.40;;;;;;6312301;22;20003;-66
2022/03/06 11:51:19;;;;;;;17.05;10.75;;;7.50;56.60;;;;;;6310096;22;20092;-66
2022/03/06 11:54:01;;;;;;;18.88;10.73;;;8.10;55.90;;;;;;6310636;22;20486;-65
2022/03/06 11:56:39;;;;;;;17.73;10.82;;;8.60;53.70;;;;;;6310196;22;20003;-65
2022/03/06 11:59:09;;;;;;;16.48;11.15;;;8.20;54.00;;;;;;6311757;22;20003;-65
2022/03/06 12:01:40;;;;;;;20.85;13.20;;;7.50;54.80;;;;;;6311993;22;20004;-65
2022/03/06 12:04:24;;;;;;;19.00;11.93;;;7.80;57.10;;;;;;6312278;22;19996;-65
2022/03/06 12:06:52;;;;;;;19.77;11.50;;;7.90;55.10;;;;;;6311578;22;20019;-65
2022/03/06 12:09:20;;;;;;;20.60;12.27;;;7.60;55.10;;;;;;6308541;22;20305;-63
2022/03/06 12:11:48;;;;;;;18.67;12.13;;;7.10;55.40;;;;;;6310875;22;20023;-65
2022/03/06 12:14:23;;;;;;;18.73;12.00;;;6.60;57.80;;;;;;6310376;22;20014;-65
2022/03/06 12:17:01;;;;;;;19.08;12.50;;;7.30;56.70;;;;;;6311734;22;20360;-65
2022/03/06 12:19:53;;;;;;;24.38;14.70;;;8.00;56.00;;;;;;6311687;22;20007;-65
2022/03/06 12:22:33;;;;;;;20.13;12.23;;;8.60;54.80;;;;;;6311866;22;20388;-65
2022/03/06 12:25:10;;;;;;;20.80;13.65;;;10.10;53.00;;;;;;6310307;22;20395;-66
2022/03/06 12:27:41;;;;;;;19.55;12.30;;;10.10;52.30;;;;;;6310475;22;20006;-62
2022/03/06 12:30:12;;;;;;;20.08;12.00;;;9.70;51.70;;;;;;6312222;22;20003;-65
2022/03/06 12:32:41;;;;;;;19.52;13.07;;;8.60;52.20;;;;;;6310250;22;20003;-63
2022/03/06 12:35:11;;;;;;;21.73;12.68;;;7.50;54.20;;;;;;6284371;22;20014;-67
2022/03/06 12:37:48;;;;;;;18.52;11.93;;;6.40;55.90;;;;;;6308480;22;20009;-65